Time;durP1;ratioP1;P1;durP2;ratioP2;P2;SDS_P1;SDS_P2;PMS_P1;PMS_P2;Temp;Humidity;BMP_temperature;BMP_pressure;BME280_temperature;BME280_humidity;BME280_pressure;Samples;Min_cycle;Max_cycle;Signal;HPM_P1;HPM_P2
2020/12/08 00:00:27;;;;;;;36.75;33.47;;;2.90;95.00;;;;;;5095501;28;20208;-71
2020/12/08 00:02:53;;;;;;;35.75;32.45;;;2.90;94.60;;;;;;5096095;28;20172;-71
2020/12/08 00:05:19;;;;;;;37.73;33.87;;;2.90;94.50;;;;;;5095898;28;20719;-71
2020/12/08 00:07:45;;;;;;;39.10;35.58;;;2.90;94.20;;;;;;5095178;28;20733;-71
2020/12/08 00:10:10;;;;;;;41.53;37.63;;;2.90;94.10;;;;;;5095433;28;20176;-71
2020/12/08 00:12:36;;;;;;;40.07;36.07;;;2.80;93.90;;;;;;5095642;28;20322;-71
2020/12/08 00:15:05;;;;;;;35.97;32.90;;;2.80;94.00;;;;;;5095097;28;20199;-71
2020/12/08 00:17:32;;;;;;;41.97;38.08;;;2.90;94.30;;;;;;5095114;28;20175;-71
2020/12/08 00:19:57;;;;;;;39.70;36.17;;;2.90;93.90;;;;;;5095036;28;20168;-71
2020/12/08 00:22:23;;;;;;;37.07;33.30;;;2.80;94.00;;;;;;5095405;28;20514;-71
2020/12/08 00:24:49;;;;;;;35.90;32.40;;;2.80;94.60;;;;;;5095111;28;20880;-71
2020/12/08 00:27:14;;;;;;;35.33;31.83;;;2.70;95.80;;;;;;5094782;28;20247;-71
2020/12/08 00:29:40;;;;;;;33.63;30.23;;;2.80;96.90;;;;;;5095303;28;20157;-71
2020/12/08 00:32:07;;;;;;;40.13;36.63;;;2.80;97.10;;;;;;5094995;28;20175;-71
2020/12/08 00:34:33;;;;;;;38.95;35.55;;;2.80;97.00;;;;;;5094705;28;20479;-71
2020/12/08 00:36:59;;;;;;;40.83;37.13;;;2.80;97.10;;;;;;5094643;28;20214;-71
2020/12/08 00:39:25;;;;;;;37.50;34.60;;;2.80;96.90;;;;;;5094972;28;20172;-71
2020/12/08 00:41:51;;;;;;;40.57;37.10;;;2.90;96.30;;;;;;5094727;28;20537;-71
2020/12/08 00:44:16;;;;;;;35.57;32.47;;;2.80;96.10;;;;;;5095102;28;20576;-71
2020/12/08 00:46:46;;;;;;;41.00;37.60;;;2.90;95.90;;;;;;5094676;28;20185;-71
2020/12/08 00:49:12;;;;;;;40.28;36.85;;;2.90;95.60;;;;;;5094717;28;20176;-71
2020/12/08 00:51:37;;;;;;;35.70;32.70;;;2.90;95.00;;;;;;5094396;28;20208;-71
2020/12/08 00:54:03;;;;;;;41.17;38.07;;;2.80;94.70;;;;;;5094365;28;20192;-71
2020/12/08 00:56:31;;;;;;;31.47;28.23;;;2.80;94.60;;;;;;5094204;28;20672;-71
2020/12/08 00:58:57;;;;;;;36.55;33.25;;;2.80;94.70;;;;;;5094353;28;20167;-71
2020/12/08 01:01:23;;;;;;;38.53;35.47;;;2.80;94.60;;;;;;5092904;28;20248;-71
2020/12/08 01:03:48;;;;;;;37.90;34.80;;;2.80;94.60;;;;;;5094189;28;20176;-71
2020/12/08 01:06:14;;;;;;;36.27;33.13;;;2.80;94.40;;;;;;5094161;28;20430;-71
2020/12/08 01:08:40;;;;;;;39.63;36.40;;;2.70;94.20;;;;;;5094437;28;20670;-71
2020/12/08 01:11:05;;;;;;;36.10;33.27;;;2.70;94.20;;;;;;5094663;28;20179;-71
2020/12/08 01:13:37;;;;;;;35.00;31.90;;;2.70;93.90;;;;;;5094357;28;20247;-71
2020/12/08 01:16:03;;;;;;;34.15;30.88;;;2.60;93.50;;;;;;5094062;28;20263;-71
2020/12/08 01:18:30;;;;;;;34.03;30.77;;;2.60;93.50;;;;;;5093942;28;20248;-71
2020/12/08 01:20:56;;;;;;;41.30;38.15;;;2.60;93.50;;;;;;5094015;28;20558;-71
2020/12/08 01:23:25;;;;;;;40.27;36.90;;;2.60;93.20;;;;;;5093091;28;20173;-71
2020/12/08 01:25:51;;;;;;;41.58;38.10;;;2.60;93.60;;;;;;5093918;28;20619;-71
2020/12/08 01:28:17;;;;;;;46.50;43.13;;;2.50;93.50;;;;;;5094301;28;20256;-71
2020/12/08 01:30:47;;;;;;;42.00;38.90;;;2.50;93.50;;;;;;5094073;28;20406;-71
2020/12/08 01:33:13;;;;;;;39.30;36.25;;;2.50;92.90;;;;;;5093671;28;20398;-71
2020/12/08 01:35:39;;;;;;;37.33;34.20;;;2.40;91.80;;;;;;5093913;28;20307;-71
2020/12/08 01:38:04;;;;;;;38.60;35.50;;;2.40;90.90;;;;;;5093532;28;20409;-71
2020/12/08 01:40:31;;;;;;;42.07;38.77;;;2.40;91.40;;;;;;5093637;28;20211;-71
2020/12/08 01:42:57;;;;;;;42.63;39.13;;;2.30;91.20;;;;;;5093854;28;20168;-71
2020/12/08 01:45:23;;;;;;;34.97;31.75;;;2.30;91.70;;;;;;5094138;28;20192;-71
2020/12/08 01:47:48;;;;;;;42.43;39.00;;;2.40;91.40;;;;;;5093648;28;20164;-71
2020/12/08 01:50:14;;;;;;;38.37;35.33;;;2.30;90.60;;;;;;5093917;28;20241;-71
2020/12/08 01:52:40;;;;;;;37.53;34.50;;;2.30;90.10;;;;;;5093509;28;20251;-71
2020/12/08 01:55:06;;;;;;;40.47;37.07;;;2.30;89.30;;;;;;5093214;28;20215;-71
2020/12/08 01:57:32;;;;;;;32.73;29.63;;;2.30;87.10;;;;;;5093612;28;20387;-71
2020/12/08 01:59:58;;;;;;;33.40;30.55;;;2.30;85.30;;;;;;5093381;28;20160;-71
2020/12/08 02:02:24;;;;;;;32.07;29.47;;;2.20;85.60;;;;;;5093802;28;20175;-70
2020/12/08 02:04:51;;;;;;;37.67;34.67;;;2.10;85.70;;;;;;5093145;28;20165;-71
2020/12/08 02:07:17;;;;;;;37.30;33.78;;;2.10;85.90;;;;;;5093299;28;20173;-71
2020/12/08 02:09:42;;;;;;;35.33;32.73;;;2.10;85.40;;;;;;5092671;28;20244;-71
2020/12/08 02:12:08;;;;;;;37.33;34.10;;;2.10;85.00;;;;;;5093699;28;20652;-71
2020/12/08 02:14:34;;;;;;;30.97;27.80;;;2.20;86.10;;;;;;5093639;28;20204;-71
2020/12/08 02:16:59;;;;;;;35.10;32.00;;;2.20;85.90;;;;;;5093110;28;20223;-71
2020/12/08 02:19:30;;;;;;;35.87;32.87;;;2.20;87.90;;;;;;5093567;28;20165;-71
2020/12/08 02:21:55;;;;;;;38.92;36.03;;;2.30;88.90;;;;;;5093769;28;20654;-71
2020/12/08 02:24:21;;;;;;;43.90;40.80;;;2.40;90.20;;;;;;5093356;28;20215;-71
2020/12/08 02:26:46;;;;;;;46.40;42.70;;;2.40;90.00;;;;;;5093098;28;20642;-71
2020/12/08 02:29:12;;;;;;;40.67;36.87;;;2.40;90.90;;;;;;5093170;28;20169;-71
2020/12/08 02:31:38;;;;;;;38.70;35.00;;;2.50;90.60;;;;;;5093566;28;20393;-71
2020/12/08 02:34:03;;;;;;;43.40;39.93;;;2.60;90.80;;;;;;5093351;28;20200;-71
2020/12/08 02:36:29;;;;;;;39.43;36.17;;;2.60;90.20;;;;;;5093253;28;20188;-71
2020/12/08 02:38:55;;;;;;;37.83;34.65;;;2.60;90.20;;;;;;5093274;28;20172;-71
2020/12/08 02:41:24;;;;;;;37.30;34.00;;;2.70;90.00;;;;;;5093095;28;20681;-71
2020/12/08 02:43:52;;;;;;;39.03;35.72;;;2.80;90.00;;;;;;5091934;28;20207;-71
2020/12/08 02:46:18;;;;;;;35.03;31.92;;;2.80;89.90;;;;;;5093225;28;20188;-71
2020/12/08 02:48:47;;;;;;;42.22;33.20;;;2.80;89.50;;;;;;5093227;28;20244;-71
2020/12/08 02:51:19;;;;;;;29.65;26.80;;;2.80;89.20;;;;;;5093431;28;20198;-71
2020/12/08 02:53:45;;;;;;;34.33;30.85;;;2.90;90.10;;;;;;5093007;28;20168;-71
2020/12/08 02:56:11;;;;;;;36.08;33.15;;;2.90;89.70;;;;;;5092938;28;20560;-71
2020/12/08 02:58:36;;;;;;;36.60;33.23;;;3.00;88.70;;;;;;5092917;28;20176;-71
2020/12/08 03:01:03;;;;;;;35.27;31.90;;;3.00;88.30;;;;;;5093125;28;20538;-71
2020/12/08 03:03:28;;;;;;;30.10;26.98;;;3.10;88.20;;;;;;5092734;28;20168;-71
2020/12/08 03:05:54;;;;;;;31.07;28.07;;;3.20;86.70;;;;;;5093351;28;20289;-71
2020/12/08 03:08:19;;;;;;;33.97;30.93;;;3.20;85.80;;;;;;5096545;28;20214;-71
2020/12/08 03:10:45;;;;;;;37.83;34.80;;;3.20;84.50;;;;;;5096875;28;20180;-71
2020/12/08 03:13:11;;;;;;;34.23;31.40;;;3.20;83.20;;;;;;5096497;28;20540;-71
2020/12/08 03:15:37;;;;;;;34.42;31.27;;;3.20;81.60;;;;;;5096737;28;20754;-71
2020/12/08 03:18:02;;;;;;;32.10;29.60;;;3.30;81.20;;;;;;5096364;28;20251;-71
2020/12/08 03:20:28;;;;;;;31.80;29.07;;;3.30;88.80;;;;;;5096210;28;20674;-71
2020/12/08 03:22:53;;;;;;;34.03;31.27;;;3.40;79.60;;;;;;5096198;28;20248;-71
2020/12/08 03:25:19;;;;;;;32.60;29.30;;;3.40;79.10;;;;;;5096122;28;20188;-71
2020/12/08 03:27:44;;;;;;;34.60;32.00;;;3.50;78.40;;;;;;5096058;28;20199;-71
2020/12/08 03:30:10;;;;;;;33.50;30.50;;;3.50;77.80;;;;;;5096215;28;20165;-71
2020/12/08 03:32:35;;;;;;;38.27;35.20;;;3.50;76.70;;;;;;5096328;28;20173;-71
2020/12/08 03:35:03;;;;;;;35.23;32.03;;;3.50;76.80;;;;;;5096116;28;20208;-71
2020/12/08 03:37:28;;;;;;;35.60;32.88;;;3.60;84.30;;;;;;5094686;28;20642;-71
2020/12/08 03:39:54;;;;;;;33.30;30.40;;;3.50;75.80;;;;;;5096191;28;20177;-71
2020/12/08 03:42:20;;;;;;;34.27;31.27;;;3.60;75.90;;;;;;5096227;28;20226;-71
2020/12/08 03:44:46;;;;;;;35.38;32.40;;;3.60;75.20;;;;;;5095699;28;20169;-71
2020/12/08 03:47:11;;;;;;;35.50;32.60;;;3.60;75.30;;;;;;5095564;28;20176;-71
2020/12/08 03:49:37;;;;;;;33.23;29.97;;;3.60;74.40;;;;;;5096201;28;20169;-71
2020/12/08 03:52:02;;;;;;;33.30;30.17;;;3.60;74.60;;;;;;5096408;28;20245;-71
2020/12/08 03:54:28;;;;;;;37.00;33.53;;;3.60;74.50;;;;;;5095740;28;20172;-71
2020/12/08 03:56:54;;;;;;;37.67;34.63;;;3.70;74.30;;;;;;5095247;28;20272;-71
2020/12/08 03:59:19;;;;;;;34.33;31.17;;;3.70;73.00;;;;;;5095721;28;20573;-71
2020/12/08 04:01:52;;;;;;;43.20;39.87;;;3.70;72.50;;;;;;5095650;28;20231;-71
2020/12/08 04:04:19;;;;;;;43.67;40.53;;;3.80;70.20;;;;;;5095431;28;20195;-71
2020/12/08 04:06:45;;;;;;;37.22;34.28;;;3.80;69.40;;;;;;5095812;28;20187;-71
2020/12/08 04:09:10;;;;;;;41.17;37.90;;;3.80;68.90;;;;;;5095767;28;20165;-71
2020/12/08 04:11:36;;;;;;;42.30;39.37;;;3.80;68.40;;;;;;5095380;28;20403;-71
2020/12/08 04:14:02;;;;;;;40.03;36.77;;;3.80;67.80;;;;;;5095325;28;20259;-71
2020/12/08 04:16:29;;;;;;;34.45;31.60;;;3.90;67.10;;;;;;5095121;28;20188;-71
2020/12/08 04:18:55;;;;;;;36.70;33.53;;;3.90;66.20;;;;;;5095186;28;20179;-71
2020/12/08 04:21:24;;;;;;;37.77;34.80;;;3.90;65.20;;;;;;5095635;28;20196;-71
2020/12/08 04:23:53;;;;;;;35.40;32.20;;;3.90;65.00;;;;;;5095240;28;20161;-71
2020/12/08 04:26:19;;;;;;;40.67;37.22;;;3.90;65.70;;;;;;5095064;28;20188;-71
2020/12/08 04:28:45;;;;;;;34.70;31.90;;;4.00;65.60;;;;;;5095116;28;20176;-71
2020/12/08 04:31:17;;;;;;;33.60;30.47;;;3.90;65.40;;;;;;5094779;28;20586;-71
2020/12/08 04:33:43;;;;;;;38.20;34.95;;;4.00;64.90;;;;;;5095045;28;20188;-71
2020/12/08 04:36:16;;;;;;;38.17;34.85;;;4.00;64.20;;;;;;5094886;28;20200;-71
2020/12/08 04:38:42;;;;;;;36.40;33.35;;;3.90;64.20;;;;;;5094594;28;20165;-71
2020/12/08 04:41:09;;;;;;;35.05;32.17;;;3.90;65.60;;;;;;5094709;28;20212;-71
2020/12/08 04:43:40;;;;;;;37.85;34.50;;;4.00;65.80;;;;;;5095074;28;20161;-71
2020/12/08 04:46:07;;;;;;;42.28;38.85;;;4.00;65.20;;;;;;5094850;28;20195;-71
2020/12/08 04:48:35;;;;;;;32.05;29.38;;;4.00;64.30;;;;;;5094429;28;20243;-71
2020/12/08 04:51:01;;;;;;;35.58;32.30;;;4.00;64.40;;;;;;5094451;28;20168;-71
2020/12/08 04:53:26;;;;;;;41.43;38.23;;;4.00;65.00;;;;;;5094656;28;20504;-71
2020/12/08 04:55:52;;;;;;;37.63;34.43;;;4.10;63.60;;;;;;5094489;28;20185;-71
2020/12/08 04:58:18;;;;;;;32.80;30.00;;;4.10;63.40;;;;;;5094608;28;20169;-71
2020/12/08 05:00:45;;;;;;;35.23;32.17;;;4.10;63.20;;;;;;5094825;28;20200;-71
2020/12/08 05:03:10;;;;;;;38.55;35.25;;;4.10;63.50;;;;;;5094448;28;20403;-71
2020/12/08 05:05:41;;;;;;;32.53;29.87;;;4.10;62.60;;;;;;5094323;28;20192;-71
2020/12/08 05:08:13;;;;;;;31.65;28.50;;;4.20;61.20;;;;;;5093961;28;20405;-71
2020/12/08 05:10:40;;;;;;;34.13;31.02;;;4.20;59.90;;;;;;5094662;28;20180;-71
2020/12/08 05:13:07;;;;;;;34.08;31.15;;;4.20;59.40;;;;;;5094125;28;20212;-71
2020/12/08 05:15:33;;;;;;;37.38;34.17;;;4.20;59.30;;;;;;5094654;28;20196;-71
2020/12/08 05:18:10;;;;;;;34.37;31.47;;;4.30;58.60;;;;;;5093026;28;20180;-71
2020/12/08 05:20:36;;;;;;;35.85;33.05;;;4.30;64.30;;;;;;5094070;28;20668;-71
2020/12/08 05:23:01;;;;;;;32.47;30.13;;;4.30;57.70;;;;;;5094175;28;20169;-71
2020/12/08 05:25:29;;;;;;;40.03;36.77;;;4.20;56.90;;;;;;5094026;28;20904;-71
2020/12/08 05:27:57;;;;;;;35.67;32.72;;;4.20;56.50;;;;;;5093887;28;20165;-71
2020/12/08 05:30:24;;;;;;;35.78;32.38;;;4.20;56.80;;;;;;5093541;28;20606;-71
2020/12/08 05:32:49;;;;;;;37.95;34.30;;;4.20;56.60;;;;;;5093874;28;20169;-71
2020/12/08 05:35:17;;;;;;;31.60;28.60;;;4.20;57.00;;;;;;5093563;28;20703;-71
2020/12/08 05:37:45;;;;;;;38.53;34.63;;;4.20;57.60;;;;;;5093793;28;20745;-71
2020/12/08 05:40:17;;;;;;;33.65;30.55;;;4.20;58.00;;;;;;5094196;28;20164;-71
2020/12/08 05:42:45;;;;;;;36.55;33.35;;;4.20;59.40;;;;;;5094191;28;20163;-71
2020/12/08 05:45:16;;;;;;;39.83;36.40;;;4.20;59.80;;;;;;5093718;28;20191;-71
2020/12/08 05:47:42;;;;;;;32.78;29.90;;;4.20;60.20;;;;;;5093763;28;20161;-71
2020/12/08 05:50:08;;;;;;;32.58;29.48;;;4.10;60.70;;;;;;5093701;28;20234;-71
2020/12/08 05:52:35;;;;;;;33.63;30.57;;;4.20;61.50;;;;;;5093957;28;20164;-71
2020/12/08 05:55:38;;;;;;;34.40;31.00;;;4.20;60.80;;;;;;5094051;28;20184;-71
2020/12/08 05:58:06;;;;;;;37.75;33.47;;;4.20;60.40;;;;;;5093709;28;20176;-71
2020/12/08 06:00:33;;;;;;;34.50;31.60;;;4.20;61.70;;;;;;5093813;28;20642;-71
2020/12/08 06:03:17;;;;;;;38.15;34.72;;;4.20;61.30;;;;;;5093868;28;20180;-71
2020/12/08 06:05:45;;;;;;;36.67;33.53;;;4.20;60.70;;;;;;5094065;28;20222;-71
2020/12/08 06:08:17;;;;;;;40.80;37.50;;;4.20;60.10;;;;;;5093336;28;20168;-71
2020/12/08 06:10:49;;;;;;;39.22;35.30;;;4.20;59.60;;;;;;5093514;28;20179;-71
2020/12/08 06:13:32;;;;;;;37.88;34.72;;;4.20;59.10;;;;;;5093847;28;20187;-71
2020/12/08 06:15:59;;;;;;;35.78;32.83;;;4.20;58.80;;;;;;5093352;28;20227;-71
2020/12/08 06:18:39;;;;;;;39.35;35.85;;;4.20;58.70;;;;;;5093437;28;20177;-71
2020/12/08 06:21:20;;;;;;;35.72;32.65;;;4.20;58.80;;;;;;5093542;28;20256;-71
2020/12/08 06:23:51;;;;;;;38.65;35.20;;;4.20;59.20;;;;;;5093801;28;20692;-71
2020/12/08 06:26:25;;;;;;;39.45;36.28;;;4.20;59.50;;;;;;5093851;28;20208;-71
2020/12/08 06:28:51;;;;;;;35.05;31.73;;;4.20;61.10;;;;;;5093176;28;20235;-71
2020/12/08 06:31:17;;;;;;;35.97;32.78;;;4.20;60.20;;;;;;5093343;28;20169;-71
2020/12/08 06:33:46;;;;;;;37.90;34.60;;;4.20;60.00;;;;;;5093181;28;20195;-71
2020/12/08 06:36:12;;;;;;;36.30;33.22;;;4.20;60.80;;;;;;5093551;28;20245;-71
2020/12/08 06:38:37;;;;;;;32.23;29.53;;;4.20;62.10;;;;;;5093081;28;20263;-71
2020/12/08 06:41:03;;;;;;;35.63;32.17;;;4.20;61.50;;;;;;5095562;28;20189;-71
2020/12/08 06:43:29;;;;;;;35.07;31.97;;;4.20;60.30;;;;;;5097476;28;20169;-71
2020/12/08 06:46:09;;;;;;;31.57;28.47;;;4.20;60.40;;;;;;5097127;28;20691;-71
2020/12/08 06:48:35;;;;;;;30.05;27.55;;;4.20;59.70;;;;;;5095830;28;20172;-71
2020/12/08 06:51:02;;;;;;;32.38;29.48;;;4.20;59.80;;;;;;5097097;28;20211;-71
2020/12/08 06:53:27;;;;;;;31.92;29.15;;;4.20;61.10;;;;;;5097036;28;20161;-71
2020/12/08 06:55:53;;;;;;;30.90;28.20;;;4.20;61.10;;;;;;5096787;28;20283;-71
2020/12/08 06:58:20;;;;;;;32.57;29.87;;;4.20;61.90;;;;;;5096635;28;20173;-71
2020/12/08 07:00:45;;;;;;;32.35;29.85;;;4.20;61.00;;;;;;5096634;28;20195;-71
2020/12/08 07:03:15;;;;;;;29.97;26.83;;;4.30;60.80;;;;;;5096983;28;20169;-71
2020/12/08 07:05:42;;;;;;;33.60;31.10;;;4.30;59.80;;;;;;5096769;28;20211;-71
2020/12/08 07:08:09;;;;;;;32.08;29.30;;;4.30;59.70;;;;;;5096607;28;20172;-71
2020/12/08 07:10:39;;;;;;;34.65;31.60;;;4.30;59.30;;;;;;5096566;28;20259;-71
2020/12/08 07:13:16;;;;;;;35.10;32.22;;;4.30;58.30;;;;;;5096485;28;20165;-71
2020/12/08 07:15:42;;;;;;;36.28;33.33;;;4.30;58.40;;;;;;5096347;28;20192;-71
2020/12/08 07:18:10;;;;;;;31.90;29.27;;;4.30;58.00;;;;;;5096262;28;20255;-71
2020/12/08 07:20:38;;;;;;;39.67;36.67;;;4.40;57.50;;;;;;5096546;28;20218;-71
2020/12/08 07:23:06;;;;;;;39.47;36.00;;;4.40;59.90;;;;;;5096195;28;20187;-71
2020/12/08 07:25:33;;;;;;;36.35;33.15;;;4.30;57.10;;;;;;5096410;28;20189;-71
2020/12/08 07:28:00;;;;;;;37.05;33.78;;;4.30;58.00;;;;;;5095969;28;20200;-71
2020/12/08 07:30:27;;;;;;;37.85;34.75;;;4.30;57.50;;;;;;5096480;28;20194;-71
2020/12/08 07:32:55;;;;;;;35.53;32.72;;;4.40;57.80;;;;;;5096080;28;20177;-71
2020/12/08 07:35:26;;;;;;;35.47;32.28;;;4.40;64.70;;;;;;5096598;28;20237;-71
2020/12/08 07:37:53;;;;;;;37.22;34.30;;;4.40;58.00;;;;;;5095939;28;20173;-71
2020/12/08 07:40:19;;;;;;;41.45;38.03;;;4.40;56.50;;;;;;5096196;28;20245;-71
2020/12/08 07:42:52;;;;;;;40.07;36.37;;;4.40;55.90;;;;;;5096184;28;20200;-71
2020/12/08 07:45:19;;;;;;;36.65;33.50;;;4.40;56.10;;;;;;5096127;28;20494;-71
2020/12/08 07:47:51;;;;;;;37.65;34.75;;;4.50;55.10;;;;;;5095717;28;20173;-71
2020/12/08 07:50:28;;;;;;;34.92;31.63;;;4.50;54.20;;;;;;5095859;28;20168;-71
2020/12/08 07:53:08;;;;;;;35.95;33.05;;;4.50;53.30;;;;;;5095190;28;20212;-71
2020/12/08 07:55:44;;;;;;;33.65;30.65;;;4.40;52.90;;;;;;5095636;28;20184;-71
2020/12/08 07:58:10;;;;;;;32.35;29.25;;;4.40;53.90;;;;;;5095423;28;20263;-71
2020/12/08 08:00:37;;;;;;;33.27;30.47;;;4.40;53.90;;;;;;5095392;28;20275;-71
2020/12/08 08:03:03;;;;;;;39.53;36.60;;;4.40;53.70;;;;;;5095636;28;20446;-71
2020/12/08 08:05:29;;;;;;;36.78;33.45;;;4.40;53.80;;;;;;5095370;28;20200;-71
2020/12/08 08:07:55;;;;;;;37.05;33.80;;;4.40;54.20;;;;;;5095367;28;20171;-71
2020/12/08 08:10:21;;;;;;;31.97;29.20;;;4.30;54.50;;;;;;5095807;28;20172;-71
2020/12/08 08:12:46;;;;;;;30.57;27.93;;;4.20;54.20;;;;;;5095730;28;20509;-71
2020/12/08 08:15:12;;;;;;;28.73;26.40;;;4.20;54.40;;;;;;5095224;28;20208;-71
2020/12/08 08:17:38;;;;;;;33.17;30.17;;;4.10;55.50;;;;;;5094957;28;20175;-71
2020/12/08 08:20:04;;;;;;;37.73;34.73;;;4.10;56.60;;;;;;5095470;28;20478;-71
2020/12/08 08:22:30;;;;;;;31.42;28.23;;;4.10;57.20;;;;;;5095291;28;20461;-71
2020/12/08 08:24:57;;;;;;;33.90;31.00;;;4.00;58.50;;;;;;5095293;28;20168;-71
2020/12/08 08:27:22;;;;;;;35.92;32.92;;;4.00;59.80;;;;;;5094859;28;20167;-71
2020/12/08 08:29:48;;;;;;;37.57;34.77;;;3.90;61.30;;;;;;5095030;28;20251;-71
2020/12/08 08:32:13;;;;;;;37.87;34.63;;;3.90;61.10;;;;;;5094961;28;20169;-71
2020/12/08 08:34:39;;;;;;;32.93;30.40;;;3.90;62.40;;;;;;5095069;28;20639;-71
2020/12/08 08:37:05;;;;;;;33.53;30.40;;;3.90;64.20;;;;;;5093831;28;20169;-71
2020/12/08 08:39:30;;;;;;;35.43;32.70;;;3.90;64.80;;;;;;5094843;28;20622;-70
2020/12/08 08:41:56;;;;;;;35.83;32.93;;;3.90;65.50;;;;;;5094798;28;20202;-71
2020/12/08 08:44:22;;;;;;;37.45;34.03;;;3.90;67.20;;;;;;5094617;28;20196;-71
2020/12/08 08:46:48;;;;;;;34.97;31.73;;;3.90;68.40;;;;;;5094607;28;20220;-71
2020/12/08 08:49:16;;;;;;;37.47;34.27;;;3.90;68.70;;;;;;5094689;28;20175;-70
2020/12/08 08:51:43;;;;;;;35.50;32.13;;;4.00;68.70;;;;;;5095286;28;20603;-71
2020/12/08 08:54:10;;;;;;;31.75;28.63;;;4.00;68.90;;;;;;5094425;28;20176;-72
2020/12/08 08:56:36;;;;;;;39.25;36.00;;;4.00;68.00;;;;;;5094914;28;20203;-71
2020/12/08 08:59:02;;;;;;;37.83;34.93;;;4.10;67.20;;;;;;5093739;28;20541;-71
2020/12/08 09:01:28;;;;;;;39.22;36.03;;;4.10;66.10;;;;;;5092266;28;20196;-71
2020/12/08 09:03:53;;;;;;;37.47;34.33;;;4.10;64.90;;;;;;5092947;28;20244;-71
2020/12/08 09:06:19;;;;;;;33.53;30.43;;;4.20;65.00;;;;;;5094089;28;20658;-70
2020/12/08 09:08:45;;;;;;;40.47;37.17;;;4.20;63.00;;;;;;5093839;28;20164;-70
2020/12/08 09:11:10;;;;;;;38.93;35.77;;;4.30;62.20;;;;;;5094269;28;20184;-70
2020/12/08 09:13:36;;;;;;;32.90;29.73;;;4.30;61.60;;;;;;5092733;28;20168;-70
2020/12/08 09:16:03;;;;;;;36.53;33.53;;;4.40;60.50;;;;;;5094536;28;20314;-70
2020/12/08 09:18:28;;;;;;;38.97;35.78;;;4.50;58.90;;;;;;5093852;28;20407;-70
2020/12/08 09:20:54;;;;;;;40.23;37.03;;;4.50;57.80;;;;;;5094079;28;20199;-70
2020/12/08 09:23:22;;;;;;;41.43;37.77;;;4.60;55.60;;;;;;5094061;28;20234;-70
2020/12/08 09:25:50;;;;;;;36.28;33.25;;;4.70;53.60;;;;;;5093895;28;20187;-70
2020/12/08 09:28:16;;;;;;;39.22;35.72;;;4.70;51.90;;;;;;5094104;28;20199;-70
2020/12/08 09:30:42;;;;;;;36.67;33.20;;;4.80;50.00;;;;;;5094069;28;20686;-71
2020/12/08 09:33:07;;;;;;;36.13;33.00;;;4.80;48.40;;;;;;5093966;28;20447;-70
2020/12/08 09:35:33;;;;;;;37.73;34.03;;;4.90;47.10;;;;;;5094258;28;20235;-70
2020/12/08 09:37:59;;;;;;;34.83;31.57;;;4.90;46.20;;;;;;5093982;28;20182;-70
2020/12/08 09:40:24;;;;;;;35.97;32.90;;;4.90;45.30;;;;;;5093362;28;20172;-70
2020/12/08 09:42:50;;;;;;;37.30;33.87;;;5.00;43.70;;;;;;5093571;28;20194;-70
2020/12/08 09:45:16;;;;;;;36.70;33.23;;;5.10;42.20;;;;;;5093644;28;20586;-70
2020/12/08 09:47:41;;;;;;;41.80;38.80;;;5.10;41.10;;;;;;5093363;28;20157;-70
2020/12/08 09:50:09;;;;;;;40.80;37.97;;;5.00;40.90;;;;;;5093918;28;20627;-70
2020/12/08 09:52:36;;;;;;;37.40;34.60;;;5.00;40.00;;;;;;5094048;28;20168;-70
2020/12/08 09:55:02;;;;;;;42.05;38.25;;;5.00;40.60;;;;;;5094014;28;20554;-70
2020/12/08 09:57:27;;;;;;;37.47;34.37;;;5.00;41.70;;;;;;5092120;28;20169;-70
2020/12/08 09:59:53;;;;;;;36.50;33.27;;;5.10;42.10;;;;;;5093641;28;20915;-70
2020/12/08 10:02:23;;;;;;;40.57;37.30;;;5.10;41.80;;;;;;5093048;28;20196;-70
2020/12/08 10:04:53;;;;;;;36.08;32.53;;;5.10;42.00;;;;;;5091696;28;20168;-70
2020/12/08 10:07:19;;;;;;;35.17;31.83;;;5.10;42.00;;;;;;5091529;28;20165;-70
2020/12/08 10:09:48;;;;;;;32.75;29.77;;;5.20;41.40;;;;;;5093411;28;20190;-70
2020/12/08 10:12:15;;;;;;;33.88;30.67;;;5.20;41.60;;;;;;5092136;28;20168;-70
2020/12/08 10:14:41;;;;;;;37.75;34.95;;;5.30;41.80;;;;;;5093443;28;20168;-70
2020/12/08 10:17:07;;;;;;;33.22;30.38;;;5.30;40.50;;;;;;5097427;28;20650;-71
2020/12/08 10:19:33;;;;;;;42.53;39.13;;;5.30;39.20;;;;;;5098088;28;20204;-71
2020/12/08 10:21:59;;;;;;;35.10;31.75;;;5.40;37.90;;;;;;5097272;28;20208;-70
2020/12/08 10:24:25;;;;;;;32.20;29.47;;;5.40;36.80;;;;;;5097309;28;20175;-70
2020/12/08 10:26:51;;;;;;;33.15;30.20;;;5.40;41.00;;;;;;5097479;28;20185;-70
2020/12/08 10:29:21;;;;;;;33.90;30.80;;;5.30;35.90;;;;;;5097478;28;20180;-70
2020/12/08 10:31:50;;;;;;;32.97;29.98;;;5.40;35.70;;;;;;5096905;28;20691;-69
2020/12/08 10:34:15;;;;;;;29.83;27.13;;;5.30;36.00;;;;;;5097298;28;20196;-69
2020/12/08 10:36:45;;;;;;;25.93;23.37;;;5.30;36.80;;;;;;5097802;28;20188;-70
2020/12/08 10:39:10;;;;;;;27.80;25.40;;;5.30;38.70;;;;;;5097185;28;20169;-70
2020/12/08 10:41:36;;;;;;;29.87;27.13;;;5.30;40.80;;;;;;5097262;28;20248;-69
2020/12/08 10:44:01;;;;;;;32.97;30.13;;;5.40;39.90;;;;;;5097402;28;20588;-70
2020/12/08 10:46:27;;;;;;;28.73;26.03;;;5.30;39.40;;;;;;5097461;28;20191;-70
2020/12/08 10:48:53;;;;;;;30.63;27.90;;;5.30;39.10;;;;;;5096804;28;20161;-69
2020/12/08 10:51:20;;;;;;;32.43;29.53;;;5.40;38.50;;;;;;5097534;28;20611;-69
2020/12/08 10:53:46;;;;;;;29.27;26.23;;;5.30;39.30;;;;;;5097146;28;20196;-69
2020/12/08 10:56:21;;;;;;;26.93;24.43;;;5.30;40.70;;;;;;5097058;28;20220;-69
2020/12/08 10:58:49;;;;;;;26.33;23.75;;;5.30;41.40;;;;;;5097183;28;20183;-69
2020/12/08 11:01:18;;;;;;;26.42;23.55;;;5.40;41.30;;;;;;5096795;28;20235;-69
2020/12/08 11:03:45;;;;;;;28.95;26.25;;;5.40;39.80;;;;;;5096740;28;20168;-69
2020/12/08 11:06:10;;;;;;;30.92;28.10;;;5.50;39.80;;;;;;5096709;28;20192;-70
2020/12/08 11:08:36;;;;;;;31.93;29.03;;;5.50;41.70;;;;;;5096673;28;20165;-69
2020/12/08 11:11:01;;;;;;;29.77;26.87;;;5.50;44.90;;;;;;5096887;28;20256;-69
2020/12/08 11:13:27;;;;;;;30.37;27.50;;;5.60;40.20;;;;;;5085334;28;20189;-69
2020/12/08 11:15:53;;;;;;;33.63;30.83;;;5.60;40.30;;;;;;5074083;28;20734;-70
2020/12/08 11:18:18;;;;;;;29.53;26.73;;;5.60;40.60;;;;;;5073815;28;20169;-70
2020/12/08 11:20:44;;;;;;;26.63;23.97;;;5.70;41.20;;;;;;5072824;28;20207;-70
2020/12/08 11:23:09;;;;;;;29.90;27.20;;;5.80;42.10;;;;;;5073985;28;20185;-70
2020/12/08 11:25:35;;;;;;;27.80;24.93;;;5.90;41.50;;;;;;5073795;28;20193;-70
2020/12/08 11:28:03;;;;;;;27.17;24.50;;;5.90;39.30;;;;;;5071876;28;20890;-69
2020/12/08 11:30:29;;;;;;;29.75;26.63;;;6.00;39.30;;;;;;5073780;28;20177;-69
2020/12/08 11:32:55;;;;;;;29.90;27.10;;;6.00;38.20;;;;;;5073587;28;20166;-69
2020/12/08 11:35:20;;;;;;;36.60;33.43;;;6.10;37.60;;;;;;5072198;28;20350;-69
2020/12/08 11:37:46;;;;;;;30.90;28.13;;;6.20;37.50;;;;;;5073527;28;20165;-69
2020/12/08 11:40:11;;;;;;;27.37;24.60;;;6.10;36.20;;;;;;5073622;28;20573;-69
2020/12/08 11:42:37;;;;;;;31.33;28.63;;;6.00;37.20;;;;;;5073101;28;20201;-70
2020/12/08 11:45:03;;;;;;;32.83;29.90;;;5.90;41.10;;;;;;5073465;28;20197;-70
2020/12/08 11:47:29;;;;;;;28.45;25.45;;;5.80;48.10;;;;;;5073287;28;20318;-70
2020/12/08 11:49:54;;;;;;;32.83;30.00;;;5.80;45.20;;;;;;5073073;28;20264;-70
2020/12/08 11:52:20;;;;;;;34.40;30.80;;;5.80;47.40;;;;;;5073294;28;20172;-70
2020/12/08 11:54:45;;;;;;;33.97;31.23;;;5.70;49.40;;;;;;5073156;28;20635;-71
2020/12/08 11:57:11;;;;;;;29.40;26.77;;;5.70;51.00;;;;;;5072888;28;20180;-70
2020/12/08 11:59:36;;;;;;;31.70;28.97;;;5.60;52.60;;;;;;5087208;28;20184;-70
2020/12/08 12:02:02;;;;;;;31.40;28.60;;;5.60;53.90;;;;;;5093290;28;20242;-69
2020/12/08 12:04:27;;;;;;;29.37;26.60;;;5.70;54.90;;;;;;5093454;28;20168;-69
2020/12/08 12:06:53;;;;;;;30.00;27.13;;;5.70;55.70;;;;;;5093238;28;20188;-69
2020/12/08 12:09:19;;;;;;;30.37;27.83;;;5.80;55.00;;;;;;5093122;28;20176;-69
2020/12/08 12:11:44;;;;;;;30.93;27.63;;;5.80;54.00;;;;;;5092778;28;20199;-71
2020/12/08 12:14:10;;;;;;;31.50;28.77;;;5.90;53.00;;;;;;5091560;28;20169;-69
2020/12/08 12:16:35;;;;;;;30.87;27.77;;;5.90;52.00;;;;;;5092832;28;20578;-70
2020/12/08 12:19:01;;;;;;;37.67;34.57;;;5.90;50.90;;;;;;5092839;28;20178;-69
2020/12/08 12:21:27;;;;;;;36.03;33.10;;;5.90;51.60;;;;;;5093134;28;20535;-69
2020/12/08 12:23:52;;;;;;;33.40;30.90;;;5.90;51.60;;;;;;5092862;28;20171;-70
2020/12/08 12:26:18;;;;;;;27.83;24.27;;;5.90;51.90;;;;;;5085644;28;20205;-70
2020/12/08 12:28:44;;;;;;;31.47;28.80;;;5.90;52.20;;;;;;5084244;28;20177;-69
2020/12/08 12:31:09;;;;;;;32.00;29.20;;;5.80;52.90;;;;;;5092401;28;20188;-70
2020/12/08 12:33:35;;;;;;;33.50;30.40;;;5.80;55.10;;;;;;5092377;28;20430;-70